Observations
| Time | Sensor | AQI | SAQ | Temp °C | Hum % | Pres Pa | CO μg/m³ | H₂S μg/m³ | NO μg/m³ | NO₂ μg/m³ | O₃ μg/m³ | SO₂ μg/m³ | CO₂e PPM | VOC PPM | PM1 μg/m³ | PM2.5 μg/m³ | PM4 μg/m³ | PM10 μg/m³ | TPS µm |
|---|---|---|---|---|---|---|---|---|---|---|---|---|---|---|---|---|---|---|---|
| Thursday 13 August 2026 | |||||||||||||||||||
| 11:13 | Trim Patrick St | 1 | 30.4 | 50 | 69,681 | 0 | 0 | 0.85 | 13.67 | 50.65 | 14.95 | 2.86 | 7.14 | 7.86 | |||||
| 11:13 | Trim Market St | 2 | 30.8 | 50 | 56,757 | 0 | 0 | 0.71 | 12.94 | 23.35 | 0 | 0.71 | 2.45 | 2.69 | |||||
| 11:12 | Trim Patrick St | 1 | 30.3 | 51 | 69,713 | 0 | 0 | 0.86 | 13.8 | 58.18 | 15.06 | 2 | 7.1 | 7.81 | |||||
| 11:12 | Trim Market St | 2 | 30.7 | 50 | 56,155 | 0 | 0 | 0.75 | 13.41 | 37.67 | 0 | 0 | 1.92 | 2.11 | |||||
| 11:11 | Trim Patrick St | 1 | 30.2 | 51 | 69,760 | 0 | 0 | 0.84 | 13.66 | 52.32 | 14.65 | 2 | 7.12 | 7.83 | |||||
| 11:11 | Trim Market St | 2 | 30.6 | 51 | 55,710 | 0.06 | 0 | 0.73 | 13.3 | 57.42 | 0 | 0.71 | 2.93 | 3.08 | |||||
| 11:10 | Trim Patrick St | 1 | 30.1 | 52 | 69,812 | 0 | 0 | 0.83 | 13.16 | 55.93 | 14.41 | 2.86 | 7.82 | 8.6 | |||||
| 11:09 | Trim Patrick St | 1 | 30 | 52 | 69,854 | 0 | 0.52 | 0.84 | 13.42 | 59.28 | 15.18 | 2 | 6.29 | 6.92 | |||||
| 11:08 | Trim Patrick St | 1 | 29.9 | 52 | 69,877 | 0 | 2.21 | 0.82 | 13.21 | 57.37 | 14.77 | 2.86 | 7.07 | 7.77 | |||||
| 11:07 | Trim Patrick St | 1 | 29.8 | 52 | 69,905 | 0 | 2.25 | 0.82 | 13.17 | 59 | 14.98 | 2 | 7.05 | 7.76 | |||||
| 11:07 | Trim Market St | 2 | 30.1 | 51 | 55,672 | 0 | 0 | 0.63 | 13.03 | 46.8 | 0 | 0 | 2.39 | 2.63 | |||||
| 11:06 | Trim Patrick St | 1 | 29.7 | 52 | 69,942 | 0 | 2.55 | 0.82 | 13.24 | 58.88 | 14.83 | 2 | 6.29 | 6.92 | |||||
| 11:06 | Trim Market St | 2 | 30.1 | 52 | 55,757 | 0 | 0 | 0.66 | 13.69 | 46.56 | 0 | 0 | 2.89 | 3.11 | |||||
| 11:05 | Trim Patrick St | 1 | 29.6 | 52 | 69,962 | 0 | 3.5 | 0.86 | 13.27 | 58.45 | 14.52 | 3.71 | 8.54 | 9.4 | |||||
| 11:05 | Trim Market St | 2 | 29.9 | 52 | 55,855 | 0 | 0 | 0.69 | 13.22 | 57.38 | 0 | 0 | 2.37 | 2.39 | |||||
| 11:04 | Trim Patrick St | 1 | 29.5 | 52 | 69,986 | 0 | 5.68 | 0.82 | 13.14 | 60.96 | 14.52 | 2 | 7.77 | 8.55 | |||||
| 11:03 | Trim Patrick St | 1 | 29.4 | 52 | 70,019 | 0 | 2.61 | 0.81 | 13.35 | 61.13 | 14.28 | 3.71 | 7.77 | 8.55 | |||||
| 11:02 | Trim Patrick St | 1 | 29.3 | 52 | 70,033 | 0 | 0.21 | 0.77 | 13.26 | 61.18 | 14.19 | 3.71 | 7.79 | 8.56 | |||||
| 11:01 | Trim Patrick St | 1 | 29.2 | 52 | 70,089 | 0 | 2.12 | 0.76 | 13.35 | 59.91 | 13.93 | 2.86 | 7.02 | 7.72 | |||||
| 11:00 | Trim Patrick St | 1 | 29.1 | 52 | 70,125 | 0 | 2.71 | 0.76 | 13.47 | 63.28 | 14.39 | 2 | 7.02 | 7.72 | |||||